Time;durP1;ratioP1;P1;durP2;ratioP2;P2;SDS_P1;SDS_P2;PMS_P1;PMS_P2;Temp;Humidity;BMP_temperature;BMP_pressure;BME280_temperature;BME280_humidity;BME280_pressure;Samples;Min_cycle;Max_cycle;Signal;HPM_P1;HPM_P2
2022/03/21 00:00:41;;;;;;;9.77;4.95;;;;;;;-3.39;57.96;98165.59;5115241;28;20023;-67
2022/03/21 00:03:09;;;;;;;10.68;5.25;;;;;;;-3.34;58.28;98165.78;5115273;28;20056;-68
2022/03/21 00:05:35;;;;;;;10.50;5.22;;;;;;;-3.26;57.94;98166.09;5115276;28;20115;-67
2022/03/21 00:08:02;;;;;;;9.48;5.57;;;;;;;-3.26;57.66;98159.31;5115146;28;20032;-67
2022/03/21 00:10:28;;;;;;;9.63;5.78;;;;;;;-3.22;57.91;98162.88;5115093;28;20366;-67
2022/03/21 00:12:54;;;;;;;11.20;6.10;;;;;;;-3.25;57.36;98155.91;5114988;28;20035;-67
2022/03/21 00:15:20;;;;;;;8.27;5.35;;;;;;;-3.21;57.36;98157.81;5115019;28;20016;-68
2022/03/21 00:17:46;;;;;;;11.35;6.35;;;;;;;-3.24;57.90;98152.56;5114985;28;20027;-67
2022/03/21 00:20:15;;;;;;;12.80;6.57;;;;;;;-3.24;57.08;98152.56;5114830;28;20020;-67
2022/03/21 00:22:40;;;;;;;13.77;6.25;;;;;;;-3.26;56.25;98149.06;5114901;28;20027;-68
2022/03/21 00:25:06;;;;;;;11.30;6.10;;;;;;;-3.24;56.53;98147.44;5114751;28;20378;-67
2022/03/21 00:27:33;;;;;;;8.90;6.15;;;;;;;-3.22;56.42;98145.81;5114761;28;20026;-68
2022/03/21 00:29:58;;;;;;;11.48;6.13;;;;;;;-3.35;56.96;98156.34;5114787;28;20062;-67
2022/03/21 00:32:25;;;;;;;11.43;6.32;;;;;;;-3.37;56.61;98143.47;5114634;28;20490;-68
2022/03/21 00:34:50;;;;;;;11.02;6.40;;;;;;;-3.43;56.46;98148.34;5114711;28;20030;-67
2022/03/21 00:37:16;;;;;;;13.00;5.72;;;;;;;-3.40;56.79;98145.94;5114402;28;20385;-67
2022/03/21 00:39:42;;;;;;;13.88;5.70;;;;;;;-3.47;55.93;98152.44;5114423;28;20039;-68
2022/03/21 00:42:10;;;;;;;13.20;6.30;;;;;;;-3.48;55.74;98147.25;5114476;28;20024;-67
2022/03/21 00:44:39;;;;;;;9.88;5.30;;;;;;;-3.55;56.55;98146.13;5114413;28;20028;-67
2022/03/21 00:47:04;;;;;;;11.65;6.43;;;;;;;-3.56;57.12;98142.69;5114406;28;20108;-68
2022/03/21 00:49:30;;;;;;;17.33;6.15;;;;;;;-3.58;57.04;98146.00;5114474;28;20162;-68
2022/03/21 00:51:56;;;;;;;22.02;13.05;;;;;;;-3.57;56.74;98140.94;5114395;28;20051;-68
2022/03/21 00:54:22;;;;;;;14.13;7.47;;;;;;;-3.59;56.78;98144.22;5114138;27;20177;-68
2022/03/21 00:56:47;;;;;;;13.00;7.43;;;;;;;-3.60;56.56;98137.38;5114435;28;20032;-68
2022/03/21 00:59:12;;;;;;;11.10;5.93;;;;;;;-3.60;56.49;98135.69;5114213;28;20084;-68
2022/03/21 01:01:38;;;;;;;15.77;8.02;;;;;;;-3.62;56.11;98134.75;5114205;28;20104;-67
2022/03/21 01:04:04;;;;;;;12.63;7.10;;;;;;;-3.61;56.26;98139.03;5114135;28;20047;-67
2022/03/21 01:06:29;;;;;;;13.05;7.05;;;;;;;-3.59;55.60;98131.44;5114169;28;20031;-68
2022/03/21 01:08:55;;;;;;;12.93;7.32;;;;;;;-3.68;55.01;98131.91;5114002;28;20130;-67
2022/03/21 01:11:22;;;;;;;17.27;10.60;;;;;;;-3.68;54.55;98131.91;5113998;28;20084;-67
2022/03/21 01:13:48;;;;;;;15.88;9.38;;;;;;;-3.55;54.20;98130.78;5113937;28;20115;-67
2022/03/21 01:16:15;;;;;;;19.40;9.73;;;;;;;-3.44;53.99;98128.66;5113961;28;20035;-67
2022/03/21 01:18:47;;;;;;;13.43;7.43;;;;;;;-3.36;53.95;98127.31;5113801;27;20039;-67
2022/03/21 01:21:13;;;;;;;11.05;6.95;;;;;;;-3.28;55.01;98121.66;5113892;28;20070;-67
2022/03/21 01:23:38;;;;;;;12.00;7.40;;;;;;;-3.21;55.00;98119.41;5113872;28;20047;-67
2022/03/21 01:26:04;;;;;;;11.57;6.82;;;;;;;-3.17;54.62;98123.84;5113728;28;20023;-67
2022/03/21 01:28:30;;;;;;;18.50;7.88;;;;;;;-3.24;54.23;98119.28;5113847;28;20507;-67
2022/03/21 01:30:55;;;;;;;12.43;7.20;;;;;;;-3.23;53.61;98122.69;5113794;28;20043;-67
2022/03/21 01:33:21;;;;;;;13.00;7.25;;;;;;;-3.19;54.00;98116.94;5113639;28;20076;-67
2022/03/21 01:35:47;;;;;;;15.45;6.55;;;;;;;-3.19;54.82;98111.81;5113730;28;20024;-67
2022/03/21 01:38:13;;;;;;;13.50;7.15;;;;;;;-3.24;54.51;98114.16;5113280;28;20055;-68
2022/03/21 01:40:39;;;;;;;17.55;6.82;;;;;;;-3.28;54.63;98109.75;5113783;28;20038;-67
2022/03/21 01:43:11;;;;;;;10.00;6.68;;;;;;;-3.27;55.00;98102.91;5113544;28;20019;-67
2022/03/21 01:45:38;;;;;;;9.90;6.43;;;;;;;-3.36;54.83;98100.84;5113577;28;20038;-67
2022/03/21 01:48:04;;;;;;;9.95;5.80;;;;;;;-3.41;54.08;98097.22;5113106;28;20020;-67
2022/03/21 01:50:29;;;;;;;11.48;6.32;;;;;;;-3.39;54.61;98101.59;5113439;28;20019;-67
2022/03/21 01:55:48;;;;;;;12.18;6.55;;;;;;;-3.53;54.60;98100.13;5113464;28;20030;-67
2022/03/21 01:58:15;;;;;;;14.07;6.90;;;;;;;-3.58;54.87;98105.91;5113544;28;20064;-67
2022/03/21 02:00:45;;;;;;;11.70;7.00;;;;;;;-3.57;54.92;98102.56;5113366;28;20043;-67
2022/03/21 02:03:11;;;;;;;;;;;;;;;-3.61;55.28;98100.66;5113726;28;20027;-67
2022/03/21 02:05:38;;;;;;;12.88;6.97;;;;;;;-3.68;55.32;98099.53;5113402;28;20384;-67
2022/03/21 02:08:04;;;;;;;16.88;7.97;;;;;;;-3.70;55.54;98101.13;5113345;28;20026;-67
2022/03/21 02:10:30;;;;;;;12.45;7.57;;;;;;;-3.75;55.20;98105.19;5113423;28;20099;-67
2022/03/21 02:12:56;;;;;;;14.05;7.15;;;;;;;-3.77;54.96;98109.34;5113221;28;20058;-67
2022/03/21 02:15:22;;;;;;;12.63;7.43;;;;;;;-3.75;54.55;98106.88;5113202;28;20091;-67
2022/03/21 02:17:50;;;;;;;17.50;7.72;;;;;;;-3.68;53.63;98112.31;5113262;28;20028;-67
2022/03/21 02:20:20;;;;;;;12.50;7.60;;;;;;;-3.68;52.79;98120.00;5113157;28;20377;-67
2022/03/21 02:22:51;;;;;;;13.43;6.85;;;;;;;-3.54;53.50;98104.38;5113272;28;20019;-67
2022/03/21 02:25:41;;;;;;;13.02;7.55;;;;;;;-3.47;51.96;98111.50;5113272;28;20027;-67
2022/03/21 02:28:11;;;;;;;10.15;5.45;;;;;;;-3.41;51.74;98104.91;5113212;28;20447;-67
2022/03/21 02:30:47;;;;;;;11.60;7.25;;;;;;;-3.37;51.41;98119.56;5113296;28;20439;-67
2022/03/21 02:33:15;;;;;;;11.15;7.05;;;;;;;-3.24;51.14;98123.53;5113069;28;20038;-67
2022/03/21 02:35:45;;;;;;;14.23;7.47;;;;;;;-3.30;50.95;98119.91;5113214;28;20031;-67
2022/03/21 02:38:12;;;;;;;12.05;7.53;;;;;;;-3.29;50.91;98115.66;5112945;28;20079;-67
2022/03/21 02:40:38;;;;;;;13.93;7.82;;;;;;;-3.27;50.92;98120.81;5113167;28;20457;-67
2022/03/21 02:43:03;;;;;;;13.68;7.70;;;;;;;-3.25;50.68;98125.19;5112943;28;20080;-67
2022/03/21 02:45:29;;;;;;;13.85;7.93;;;;;;;-3.17;51.26;98128.09;5113042;28;20020;-67
2022/03/21 02:47:55;;;;;;;11.50;7.22;;;;;;;-3.28;51.07;98129.34;5112954;28;20047;-67
2022/03/21 02:50:43;;;;;;;16.58;8.30;;;;;;;-3.36;51.20;98129.88;5112872;28;20027;-67
2022/03/21 02:53:10;;;;;;;17.48;8.55;;;;;;;-3.32;51.44;98130.88;5112981;28;20034;-67
2022/03/21 02:55:36;;;;;;;14.20;7.88;;;;;;;-3.26;51.47;98131.13;5112872;28;20373;-67
2022/03/21 02:58:02;;;;;;;13.88;8.13;;;;;;;-3.31;52.11;98136.06;5112834;28;20020;-67
2022/03/21 03:00:28;;;;;;;12.82;7.60;;;;;;;-3.32;51.99;98144.56;5113853;28;20442;-68
2022/03/21 03:02:55;;;;;;;23.65;13.63;;;;;;;-3.36;52.84;98135.00;5116611;27;20027;-67
2022/03/21 03:05:20;;;;;;;21.10;12.85;;;;;;;-3.35;52.92;98139.31;5116381;28;20073;-67
2022/03/21 03:07:46;;;;;;;13.10;8.48;;;;;;;-3.48;53.26;98132.78;5116388;28;20031;-67
2022/03/21 03:10:11;;;;;;;12.63;8.10;;;;;;;-3.60;53.61;98139.91;5116377;28;20031;-67
2022/03/21 03:12:37;;;;;;;18.60;8.80;;;;;;;-3.70;53.68;98143.78;5116312;28;20035;-67
2022/03/21 03:15:03;;;;;;;14.32;8.52;;;;;;;-3.92;54.07;98131.72;5116195;28;20032;-67
2022/03/21 03:17:29;;;;;;;17.10;8.65;;;;;;;-3.90;54.10;98140.31;5116181;28;20030;-67
2022/03/21 03:19:55;;;;;;;19.23;9.13;;;;;;;-3.92;54.14;98129.16;5116066;28;20386;-67
2022/03/21 03:22:23;;;;;;;16.20;9.23;;;;;;;-3.98;54.27;98139.94;5116128;28;20522;-67
2022/03/21 03:24:50;;;;;;;13.73;8.48;;;;;;;-4.12;55.14;98141.91;5116095;28;20016;-67
2022/03/21 03:27:16;;;;;;;22.23;10.35;;;;;;;-4.36;55.82;98135.69;5116022;28;20086;-67
2022/03/21 03:29:41;;;;;;;22.13;10.45;;;;;;;-4.39;55.45;98135.59;5116043;28;20027;-67
2022/03/21 03:32:07;;;;;;;12.05;8.10;;;;;;;-4.35;54.60;98132.38;5115914;27;20027;-67
2022/03/21 03:34:33;;;;;;;13.90;7.93;;;;;;;-4.31;55.27;98128.25;5115933;28;20466;-67
2022/03/21 03:36:59;;;;;;;21.05;9.60;;;;;;;-4.34;55.44;98130.66;5115924;28;20121;-67
2022/03/21 03:39:26;;;;;;;12.73;8.55;;;;;;;-4.51;54.89;98133.34;5115522;28;20051;-67
2022/03/21 03:41:51;;;;;;;16.35;9.35;;;;;;;-4.40;55.33;98135.50;5115613;27;20108;-67
2022/03/21 03:44:18;;;;;;;18.10;8.70;;;;;;;-4.41;54.97;98128.63;5115772;28;20099;-67
2022/03/21 03:46:44;;;;;;;17.98;9.98;;;;;;;-4.45;54.72;98132.75;5115739;28;20373;-67
2022/03/21 03:49:10;;;;;;;21.30;9.38;;;;;;;-4.40;54.56;98126.16;5115628;28;20080;-67
2022/03/21 03:51:36;;;;;;;16.25;9.10;;;;;;;-4.28;54.25;98130.09;5115577;28;20103;-67
2022/03/21 03:54:01;;;;;;;16.10;8.10;;;;;;;-4.22;54.46;98126.13;5115408;28;20099;-67
2022/03/21 03:56:27;;;;;;;16.00;9.15;;;;;;;-4.16;54.34;98132.34;5115538;28;20104;-67
2022/03/21 03:58:52;;;;;;;15.98;8.82;;;;;;;-4.13;53.53;98130.78;5115346;28;20572;-67
2022/03/21 04:01:18;;;;;;;14.27;8.82;;;;;;;-4.09;53.25;98125.00;5115366;28;20020;-67
2022/03/21 04:03:46;;;;;;;17.92;8.98;;;;;;;-4.06;53.00;98132.81;5115316;28;20152;-67
2022/03/21 04:06:21;;;;;;;17.23;9.32;;;;;;;-3.93;53.26;98133.38;5115247;27;20019;-67
2022/03/21 04:08:48;;;;;;;17.35;9.32;;;;;;;-3.90;53.33;98130.97;5115243;28;20354;-67
2022/03/21 04:11:14;;;;;;;14.57;8.50;;;;;;;-3.89;53.42;98127.59;5113425;28;20073;-67
2022/03/21 04:13:41;;;;;;;19.15;9.85;;;;;;;-3.83;53.23;98132.09;5115092;28;20445;-67
2022/03/21 04:16:06;;;;;;;19.23;9.05;;;;;;;-3.84;53.16;98131.25;5115075;27;20024;-67
2022/03/21 04:18:33;;;;;;;18.33;8.90;;;;;;;-3.81;53.22;98133.06;5115036;28;20038;-67
2022/03/21 04:20:58;;;;;;;17.40;8.50;;;;;;;-3.78;53.22;98132.31;5115030;27;20031;-67
2022/03/21 04:23:24;;;;;;;17.65;8.68;;;;;;;-3.81;53.71;98136.50;5114840;28;20020;-67
2022/03/21 04:25:50;;;;;;;13.77;9.00;;;;;;;-3.83;54.00;98139.78;5115005;28;20116;-66
2022/03/21 04:28:16;;;;;;;16.23;9.57;;;;;;;-3.89;54.24;98139.53;5114872;28;20106;-67
2022/03/21 04:30:43;;;;;;;18.25;10.45;;;;;;;-3.95;54.51;98137.53;5114739;28;20039;-67
2022/03/21 04:33:10;;;;;;;16.67;9.13;;;;;;;-3.98;54.37;98135.72;5114613;28;20073;-67
2022/03/21 04:35:37;;;;;;;14.75;7.95;;;;;;;-4.15;55.00;98136.66;5114736;28;20023;-67
2022/03/21 04:38:05;;;;;;;14.10;8.27;;;;;;;-4.34;55.31;98135.78;5114696;28;20097;-67
2022/03/21 04:40:31;;;;;;;13.70;8.15;;;;;;;-4.47;55.85;98132.66;5114294;28;20524;-67
2022/03/21 04:42:56;;;;;;;14.65;9.40;;;;;;;-4.58;56.55;98134.69;5114549;28;20027;-67
2022/03/21 04:45:22;;;;;;;15.63;8.90;;;;;;;-4.67;57.33;98130.84;5114544;27;20024;-67
2022/03/21 04:47:48;;;;;;;16.10;8.57;;;;;;;-4.84;57.90;98128.34;5114361;28;20097;-67
2022/03/21 04:50:14;;;;;;;14.43;8.77;;;;;;;-4.85;57.99;98134.28;5114479;28;20027;-66
2022/03/21 04:52:40;;;;;;;17.15;9.00;;;;;;;-4.89;58.55;98135.78;5114229;28;20038;-67
2022/03/21 04:55:09;;;;;;;19.73;8.98;;;;;;;-4.93;58.86;98136.44;5114368;28;20015;-67
2022/03/21 04:57:35;;;;;;;18.08;9.23;;;;;;;-4.92;59.11;98129.63;5114381;27;20099;-67
2022/03/21 05:00:04;;;;;;;18.83;9.02;;;;;;;-4.84;59.54;98136.88;5114310;28;20063;-67
2022/03/21 05:02:29;;;;;;;18.00;9.00;;;;;;;-4.85;60.02;98127.47;5114249;28;20034;-66
2022/03/21 05:04:55;;;;;;;18.50;9.45;;;;;;;-4.52;60.37;98133.25;5114207;28;20020;-67
2022/03/21 05:07:20;;;;;;;17.75;9.23;;;;;;;-3.43;58.53;98131.28;5114190;28;20023;-67
2022/03/21 05:09:46;;;;;;;18.50;8.15;;;;;;;-2.13;54.94;98127.88;5114103;28;20371;-67
2022/03/21 05:12:12;;;;;;;16.67;8.30;;;;;;;-0.83;51.39;98130.69;5114060;28;20020;-67
2022/03/21 05:14:38;;;;;;;16.27;7.28;;;;;;;0.39;47.95;98129.22;5113918;28;20027;-67
2022/03/21 05:17:05;;;;;;;12.50;7.32;;;;;;;1.45;45.04;98125.06;5113955;28;20016;-67
2022/03/21 05:19:35;;;;;;;14.77;7.82;;;;;;;2.36;43.63;98125.31;5113816;28;20409;-67
2022/03/21 05:22:04;;;;;;;12.15;8.27;;;;;;;3.48;41.15;98118.66;5113890;28;20035;-67
2022/03/21 05:32:43;;;;;;;15.68;8.13;;;;;;;7.22;31.65;98119.13;5113974;28;20030;-67
2022/03/21 05:37:53;;;;;;;15.15;8.65;;;;;;;9.19;28.83;98127.22;5114048;28;20093;-67
2022/03/21 05:40:41;;;;;;;16.58;8.20;;;;;;;9.66;26.54;98125.09;5113513;28;20047;-67
2022/03/21 05:43:07;;;;;;;11.30;7.60;;;;;;;10.03;27.00;98120.41;5113662;28;20548;-67
2022/03/21 05:45:32;;;;;;;11.70;8.80;;;;;;;10.57;24.76;98134.66;5112417;28;20047;-66
2022/03/21 05:50:43;;;;;;;13.15;8.60;;;;;;;10.67;24.42;98130.16;5113863;28;20035;-67
2022/03/21 05:53:09;;;;;;;13.02;8.40;;;;;;;10.88;23.28;98126.38;5113370;28;20035;-67
2022/03/21 05:55:35;;;;;;;11.57;8.80;;;;;;;10.76;23.46;98131.78;5113427;28;20047;-68
2022/03/21 05:58:02;;;;;;;12.02;7.85;;;;;;;10.49;23.57;98133.00;5113421;28;20491;-68
2022/03/21 06:00:28;;;;;;;10.55;7.82;;;;;;;10.58;23.27;98136.38;5113495;28;20081;-67
2022/03/21 06:02:53;;;;;;;13.15;8.05;;;;;;;10.82;22.89;98126.47;5113434;28;20020;-68
2022/03/21 06:05:21;;;;;;;11.00;8.00;;;;;;;10.73;22.79;98130.97;5113400;28;20019;-68
2022/03/21 06:07:48;;;;;;;10.05;7.13;;;;;;;10.21;23.12;98121.97;5113396;28;20488;-67
2022/03/21 06:10:13;;;;;;;11.90;7.65;;;;;;;10.27;23.46;98136.72;5113259;28;20027;-67
2022/03/21 06:12:43;;;;;;;9.52;7.28;;;;;;;10.78;22.82;98127.41;5113504;28;20019;-68
2022/03/21 06:15:09;;;;;;;12.85;7.85;;;;;;;11.02;22.78;98130.56;5113358;28;20023;-67
2022/03/21 06:17:39;;;;;;;10.20;7.30;;;;;;;10.91;22.22;98126.34;5113241;28;20031;-67
2022/03/21 06:20:07;;;;;;;12.20;7.03;;;;;;;10.40;22.65;98142.66;5113270;28;20016;-68
2022/03/21 06:22:33;;;;;;;9.95;6.57;;;;;;;9.66;22.68;98132.94;5113253;28;20016;-68
2022/03/21 06:24:58;;;;;;;12.27;7.03;;;;;;;8.72;23.57;98128.38;5113383;28;20031;-67
2022/03/21 06:27:24;;;;;;;10.93;6.75;;;;;;;8.75;23.02;98140.53;5113269;28;20016;-67
2022/03/21 06:29:49;;;;;;;9.13;6.18;;;;;;;8.43;23.99;98138.91;5113176;28;20024;-67
2022/03/21 06:32:15;;;;;;;9.35;6.63;;;;;;;9.01;24.07;98133.44;5113112;28;20031;-67
2022/03/21 06:34:40;;;;;;;8.82;6.07;;;;;;;9.31;22.47;98131.50;5114167;28;20446;-66
2022/03/21 06:37:08;;;;;;;7.90;5.32;;;;;;;8.71;22.40;98141.44;5117063;28;20020;-67
2022/03/21 06:39:34;;;;;;;9.80;5.90;;;;;;;7.89;22.86;98126.91;5116846;28;20118;-67
2022/03/21 06:41:59;;;;;;;13.55;5.70;;;;;;;7.70;23.85;98134.72;5116970;28;20046;-66
2022/03/21 06:44:25;;;;;;;8.95;5.07;;;;;;;7.58;23.16;98133.88;5116967;28;20488;-67
2022/03/21 06:46:50;;;;;;;7.35;4.90;;;;;;;7.00;23.37;98134.69;5116802;28;20023;-67
2022/03/21 06:49:16;;;;;;;7.30;5.28;;;;;;;6.88;24.46;98135.53;5116829;28;20034;-66
2022/03/21 06:51:41;;;;;;;11.80;5.40;;;;;;;7.12;23.96;98132.13;5116901;28;20039;-66
2022/03/21 06:54:07;;;;;;;6.22;4.85;;;;;;;7.62;23.93;98139.09;5116546;28;20426;-67
2022/03/21 06:56:32;;;;;;;7.85;5.22;;;;;;;7.57;23.47;98126.06;5116740;28;20031;-67
2022/03/21 06:58:58;;;;;;;9.73;4.97;;;;;;;7.50;23.53;98127.81;5116663;28;20022;-66
2022/03/21 07:01:25;;;;;;;9.02;4.65;;;;;;;7.22;23.62;98119.13;5116520;28;20041;-67
2022/03/21 07:03:50;;;;;;;6.82;4.43;;;;;;;6.78;24.65;98127.72;5116505;28;20393;-65
2022/03/21 07:06:17;;;;;;;5.65;4.30;;;;;;;6.63;23.85;98120.75;5116417;28;20031;-66
2022/03/21 07:08:42;;;;;;;6.95;4.50;;;;;;;6.55;24.88;98118.13;5116368;28;20031;-66
2022/03/21 07:11:12;;;;;;;7.82;4.43;;;;;;;6.49;24.11;98123.28;5116379;28;20015;-66
2022/03/21 07:13:38;;;;;;;7.10;4.28;;;;;;;6.48;24.40;98120.69;5116726;28;20434;-67
2022/03/21 07:16:04;;;;;;;7.28;4.40;;;;;;;6.45;25.60;98121.56;5116214;28;20081;-67
2022/03/21 07:18:30;;;;;;;6.82;4.05;;;;;;;6.22;25.35;98114.50;5116246;28;20024;-68
2022/03/21 07:20:55;;;;;;;6.28;4.03;;;;;;;6.21;24.87;98119.69;5116072;27;20470;-68
2022/03/21 07:23:21;;;;;;;5.65;3.70;;;;;;;5.90;25.02;98125.59;5116128;28;20051;-65
2022/03/21 07:25:47;;;;;;;11.50;4.38;;;;;;;6.03;26.04;98110.91;5116094;28;20033;-66
2022/03/21 07:28:12;;;;;;;12.85;4.60;;;;;;;6.19;26.04;98114.50;5116101;28;20378;-68
2022/03/21 07:30:38;;;;;;;7.05;4.05;;;;;;;6.51;24.91;98098.19;5115983;28;20104;-66
2022/03/21 07:33:04;;;;;;;6.22;3.83;;;;;;;6.78;24.73;98109.53;5115729;28;20027;-68
2022/03/21 07:35:30;;;;;;;5.38;3.58;;;;;;;6.78;23.88;98111.25;5115937;28;20020;-65
2022/03/21 07:37:57;;;;;;;6.22;4.15;;;;;;;6.79;24.68;98119.06;5115785;28;20463;-66
2022/03/21 07:40:24;;;;;;;4.90;3.63;;;;;;;6.88;24.69;98107.78;5115656;28;20512;-66
2022/03/21 07:42:50;;;;;;;7.72;3.58;;;;;;;7.13;24.36;98102.63;5115708;28;20481;-65
2022/03/21 07:48:01;;;;;;;4.53;3.20;;;;;;;7.21;24.50;98100.03;5115627;28;20039;-66
2022/03/21 07:50:28;;;;;;;6.10;3.92;;;;;;;7.20;24.97;98106.97;5115610;28;20019;-65
2022/03/21 07:52:54;;;;;;;5.60;3.42;;;;;;;7.40;23.94;98100.00;5115518;28;20042;-66
2022/03/21 07:55:21;;;;;;;8.93;4.15;;;;;;;7.55;24.03;98104.34;5115398;28;20054;-67
2022/03/21 07:57:47;;;;;;;4.25;3.50;;;;;;;7.62;23.39;98095.69;5115505;28;20023;-65
2022/03/21 08:00:14;;;;;;;6.63;3.03;;;;;;;7.61;24.26;98095.69;5116199;28;20027;-66
2022/03/21 08:02:43;;;;;;;5.15;3.65;;;;;;;7.54;24.22;98105.22;5115549;28;20377;-68
2022/03/21 08:05:09;;;;;;;4.68;3.47;;;;;;;7.18;24.28;98092.22;5115393;28;20026;-66
2022/03/21 08:07:35;;;;;;;5.25;3.72;;;;;;;7.04;24.77;98095.66;5115285;28;20114;-66
2022/03/21 08:10:03;;;;;;;4.85;3.08;;;;;;;6.59;24.82;98097.31;5115347;28;20104;-68
2022/03/21 08:12:29;;;;;;;4.55;3.20;;;;;;;6.30;25.72;98084.22;5115080;28;20064;-65
2022/03/21 08:14:58;;;;;;;7.72;3.35;;;;;;;6.76;24.33;98094.75;5115197;28;20023;-67
2022/03/21 08:17:26;;;;;;;4.60;3.33;;;;;;;6.95;24.99;98075.72;5115167;27;20081;-66
2022/03/21 08:19:52;;;;;;;4.93;3.35;;;;;;;6.97;24.73;98086.13;5115078;28;20456;-65
2022/03/21 08:22:19;;;;;;;6.47;3.78;;;;;;;6.83;25.32;98080.88;5114838;28;20110;-67
2022/03/21 08:24:45;;;;;;;4.47;3.50;;;;;;;6.78;25.12;98072.22;5114879;28;20120;-66
2022/03/21 08:27:11;;;;;;;5.32;3.15;;;;;;;7.20;25.76;98083.53;5115039;28;20034;-65
2022/03/21 08:29:37;;;;;;;4.93;3.33;;;;;;;7.05;25.20;98083.53;5114868;28;20070;-66
2022/03/21 08:32:03;;;;;;;4.28;3.33;;;;;;;7.26;25.02;98087.00;5114853;28;20015;-66
2022/03/21 08:34:29;;;;;;;4.10;3.05;;;;;;;7.23;24.03;98100.03;5114800;28;20106;-69
2022/03/21 08:36:54;;;;;;;4.55;2.83;;;;;;;6.92;24.74;98088.72;5114775;28;20520;-66
2022/03/21 08:39:20;;;;;;;5.70;3.20;;;;;;;6.39;24.93;98092.91;5114532;28;20040;-68
2022/03/21 08:41:45;;;;;;;6.93;4.00;;;;;;;6.44;26.70;98088.59;5114753;28;20373;-67
2022/03/21 08:44:11;;;;;;;4.00;3.40;;;;;;;6.50;25.23;98093.81;5114552;27;20465;-67
2022/03/21 08:46:37;;;;;;;4.63;3.40;;;;;;;6.40;25.28;98082.53;5114809;28;20023;-66
2022/03/21 08:51:47;;;;;;;6.43;4.32;;;;;;;6.39;26.78;98075.59;5114602;28;20111;-68
2022/03/21 08:54:13;;;;;;;6.88;4.22;;;;;;;6.61;26.82;98079.97;5114387;28;20066;-67
2022/03/21 08:56:39;;;;;;;5.63;4.07;;;;;;;6.88;25.55;98075.69;5114320;28;20024;-66
2022/03/21 08:59:05;;;;;;;9.82;3.42;;;;;;;7.22;26.29;98075.72;5114299;28;20028;-67
2022/03/21 09:01:32;;;;;;;5.70;3.75;;;;;;;7.31;25.08;98080.94;5114338;28;20096;-66
2022/03/21 09:04:01;;;;;;;5.10;3.65;;;;;;;7.28;25.04;98078.31;5114306;28;20034;-66
2022/03/21 09:06:27;;;;;;;4.97;3.72;;;;;;;7.48;25.45;98084.38;5114247;28;20046;-63
2022/03/21 09:08:53;;;;;;;6.70;3.75;;;;;;;7.46;24.23;98069.66;5114098;28;20024;-68
2022/03/21 09:11:19;;;;;;;6.10;3.83;;;;;;;7.50;25.56;98061.84;5114021;27;20032;-67
2022/03/21 09:13:47;;;;;;;5.20;3.60;;;;;;;7.24;24.21;98071.41;5114039;28;20016;-66
2022/03/21 09:16:13;;;;;;;6.97;3.65;;;;;;;6.90;25.24;98066.16;5113921;28;20462;-67
2022/03/21 09:18:40;;;;;;;6.38;3.50;;;;;;;7.13;24.48;98055.78;5114001;28;20058;-66
2022/03/21 09:21:06;;;;;;;5.25;3.65;;;;;;;7.06;24.81;98067.94;5113789;28;20047;-68
2022/03/21 09:23:33;;;;;;;5.40;3.72;;;;;;;7.35;24.97;98074.00;5113759;28;20063;-66
2022/03/21 09:26:02;;;;;;;4.75;3.10;;;;;;;7.08;24.16;98073.13;5113933;28;20023;-68
2022/03/21 09:28:29;;;;;;;4.50;3.42;;;;;;;7.01;24.46;98071.41;5113700;28;20032;-68
2022/03/21 09:30:54;;;;;;;6.45;3.63;;;;;;;6.95;25.49;98061.81;5113749;28;20028;-66
2022/03/21 09:33:20;;;;;;;6.57;3.63;;;;;;;6.76;25.15;98082.63;5113753;28;20400;-68
2022/03/21 09:35:47;;;;;;;8.20;3.60;;;;;;;6.66;26.09;98070.47;5113646;28;20552;-66
2022/03/21 09:38:14;;;;;;;5.88;3.42;;;;;;;6.73;25.16;98069.63;5113495;28;20122;-66
2022/03/21 09:40:42;;;;;;;5.10;3.05;;;;;;;7.07;25.72;98063.56;5113806;28;20063;-68
2022/03/21 09:43:10;;;;;;;4.93;3.80;;;;;;;7.41;27.08;98054.91;5113710;28;20020;-68
2022/03/21 09:45:37;;;;;;;9.68;3.75;;;;;;;7.50;25.32;98067.03;5113531;28;20019;-67
2022/03/21 09:48:11;;;;;;;5.40;3.33;;;;;;;7.13;24.07;98058.38;5113392;28;20485;-66
2022/03/21 09:50:42;;;;;;;5.18;3.30;;;;;;;7.17;24.75;98060.09;5113556;28;20126;-67
2022/03/21 09:53:18;;;;;;;7.75;3.33;;;;;;;7.26;25.63;98051.44;5113506;28;20024;-66
2022/03/21 09:55:44;;;;;;;4.60;3.45;;;;;;;7.21;24.57;98058.38;5113646;28;20036;-66
2022/03/21 09:58:10;;;;;;;3.55;3.05;;;;;;;7.39;24.75;98054.03;5113420;28;20012;-67
2022/03/21 10:00:41;;;;;;;4.88;3.20;;;;;;;7.41;24.38;98058.34;5113350;28;20020;-67
2022/03/21 10:03:07;;;;;;;6.43;3.33;;;;;;;7.48;24.72;98045.31;5113483;28;20477;-68
2022/03/21 10:05:42;;;;;;;4.57;3.58;;;;;;;7.62;25.30;98051.41;5113461;28;20031;-66
2022/03/21 10:08:18;;;;;;;5.35;3.50;;;;;;;7.47;24.34;98044.47;5113541;28;20076;-67
2022/03/21 10:11:02;;;;;;;4.72;3.30;;;;;;;7.50;24.63;98044.47;5116620;28;20027;-66
2022/03/21 10:13:31;;;;;;;4.88;3.55;;;;;;;7.41;24.98;98028.88;5117525;28;20425;-67
2022/03/21 10:16:09;;;;;;;5.43;3.50;;;;;;;7.75;24.82;98046.16;5116219;28;20396;-67
2022/03/21 10:18:37;;;;;;;4.38;3.28;;;;;;;7.80;23.95;98028.78;5117521;28;20430;-65
2022/03/21 10:21:13;;;;;;;5.10;3.60;;;;;;;7.74;24.25;98037.47;5117489;28;20023;-68
2022/03/21 10:23:39;;;;;;;5.65;3.90;;;;;;;7.51;25.15;98034.91;5117325;28;20028;-66
2022/03/21 10:26:28;;;;;;;4.47;3.45;;;;;;;7.50;24.28;98023.66;5117186;28;20081;-66
2022/03/21 10:28:56;;;;;;;5.78;3.30;;;;;;;7.52;24.21;98014.06;5117398;28;20127;-66
2022/03/21 10:31:41;;;;;;;5.38;3.22;;;;;;;7.61;25.23;98017.53;5117305;28;20472;-67
2022/03/21 10:34:20;;;;;;;6.47;2.60;;;;;;;7.42;24.39;98013.25;5117108;28;20028;-68
2022/03/21 10:37:04;;;;;;;6.82;3.78;;;;;;;7.40;24.28;98021.91;5117107;28;20019;-68
2022/03/21 10:39:32;;;;;;;5.53;3.42;;;;;;;7.53;25.58;98018.41;5116860;28;20047;-68
2022/03/21 10:42:18;;;;;;;4.78;3.85;;;;;;;7.62;23.86;98009.72;5116998;28;20031;-67
2022/03/21 10:44:54;;;;;;;4.57;3.38;;;;;;;7.86;24.41;97996.63;5116658;28;20082;-68
2022/03/21 10:47:21;;;;;;;4.28;2.90;;;;;;;7.59;23.90;98002.75;5116957;28;20028;-68
2022/03/21 10:49:46;;;;;;;3.97;3.20;;;;;;;7.56;25.18;98020.16;5116972;28;20016;-67
2022/03/21 10:52:21;;;;;;;4.68;3.17;;;;;;;7.77;24.40;98013.16;5116826;28;20469;-67
2022/03/21 10:54:50;;;;;;;5.43;3.42;;;;;;;8.04;25.74;98012.16;5116721;28;20040;-66
2022/03/21 10:57:26;;;;;;;4.82;3.15;;;;;;;8.05;24.03;98003.50;5116640;28;20493;-66
2022/03/21 11:00:12;;;;;;;5.40;3.28;;;;;;;8.05;24.25;97987.84;5116532;28;20035;-66
2022/03/21 11:02:51;;;;;;;4.25;3.05;;;;;;;7.96;23.47;97996.59;5112723;28;20038;-67
2022/03/21 11:05:18;;;;;;;3.30;2.88;;;;;;;7.70;23.99;98004.47;5116676;28;20028;-68
2022/03/21 11:07:47;;;;;;;4.25;3.40;;;;;;;7.65;25.28;97988.00;5116687;28;20051;-67
2022/03/21 11:10:14;;;;;;;5.28;3.38;;;;;;;7.93;25.69;97990.50;5116453;28;20081;-67
2022/03/21 11:12:42;;;;;;;5.90;3.42;;;;;;;8.20;24.78;97983.44;5116223;28;20028;-65
2022/03/21 11:15:09;;;;;;;5.85;3.75;;;;;;;8.34;23.80;97981.59;5116262;28;20020;-66
2022/03/21 11:17:36;;;;;;;5.22;3.47;;;;;;;7.93;23.62;97969.66;5116346;28;20030;-65
2022/03/21 11:20:03;;;;;;;8.98;3.50;;;;;;;7.91;24.64;97980.09;5116240;28;20016;-67
2022/03/21 11:22:29;;;;;;;4.55;3.75;;;;;;;8.02;26.27;97977.44;5114970;28;20185;-65
2022/03/21 11:25:04;;;;;;;5.03;3.40;;;;;;;8.19;24.35;97973.88;5116097;28;20037;-67
2022/03/21 11:27:47;;;;;;;4.25;3.58;;;;;;;8.29;24.04;97962.53;5116266;28;20035;-65
2022/03/21 11:30:31;;;;;;;7.72;4.28;;;;;;;8.37;27.14;97969.44;5114887;28;20045;-67
2022/03/21 11:33:24;;;;;;;4.93;3.30;;;;;;;8.36;24.44;97960.72;5116086;27;20024;-68
2022/03/21 11:36:01;;;;;;;5.38;3.92;;;;;;;8.27;24.62;97956.44;5116006;28;20039;-65
2022/03/21 11:38:36;;;;;;;5.10;3.92;;;;;;;8.26;25.11;97959.06;5115827;28;20055;-66
2022/03/21 11:41:13;;;;;;;5.88;4.00;;;;;;;8.46;25.09;97956.34;5115985;28;20080;-67
2022/03/21 11:43:40;;;;;;;5.78;4.25;;;;;;;8.55;25.19;97961.50;5114486;28;20440;-65
2022/03/21 11:46:29;;;;;;;9.70;4.10;;;;;;;8.58;24.47;97947.59;5115780;28;20110;-66
2022/03/21 11:48:59;;;;;;;6.05;4.13;;;;;;;8.60;25.25;97953.66;5115645;27;20034;-67
2022/03/21 11:51:27;;;;;;;8.20;4.32;;;;;;;8.65;24.81;97949.28;5115628;28;20032;-67
2022/03/21 11:53:54;;;;;;;6.30;4.63;;;;;;;8.82;24.41;97943.06;5115469;28;20377;-66
2022/03/21 11:56:38;;;;;;;6.18;4.00;;;;;;;8.77;25.87;97937.88;5115567;28;20028;-66
2022/03/21 11:59:04;;;;;;;5.53;3.67;;;;;;;8.83;25.31;97947.38;5115773;28;20046;-66